Time;durP1;ratioP1;P1;durP2;ratioP2;P2;SDS_P1;SDS_P2;PMS_P1;PMS_P2;Temp;Humidity;BMP_temperature;BMP_pressure;BME280_temperature;BME280_humidity;BME280_pressure;Samples;Min_cycle;Max_cycle;Signal;HPM_P1;HPM_P2
2022/10/22 00:01:46;;;;;;;8.30;3.78;;;;;;;12.10;100.00;100714.25;6189916;23;20435;-88
2022/10/22 00:04:12;;;;;;;10.70;4.07;;;;;;;12.06;100.00;100704.88;6164511;23;20095;-88
2022/10/22 00:06:37;;;;;;;9.53;3.60;;;;;;;12.07;100.00;100712.81;6189333;23;20244;-88
2022/10/22 00:09:03;;;;;;;8.83;3.87;;;;;;;12.07;100.00;100717.44;6184332;23;20020;-88
2022/10/22 00:11:28;;;;;;;11.45;4.00;;;;;;;12.03;100.00;100713.50;6184703;23;20104;-88
2022/10/22 00:13:54;;;;;;;7.60;3.97;;;;;;;11.97;100.00;100701.66;6184663;23;20021;-89
2022/10/22 00:16:20;;;;;;;9.10;3.60;;;;;;;11.98;100.00;100700.59;6184382;23;20335;-88
2022/10/22 00:18:51;;;;;;;10.30;3.67;;;;;;;11.94;100.00;100702.09;6184920;23;20009;-88
2022/10/22 00:21:16;;;;;;;10.65;3.80;;;;;;;11.94;100.00;100702.09;6159592;23;20012;-88
2022/10/22 00:23:47;;;;;;;6.73;3.57;;;;;;;12.00;100.00;100716.69;6185899;23;20033;-88
2022/10/22 00:26:12;;;;;;;9.82;3.92;;;;;;;11.89;100.00;100701.94;6135952;23;20023;-88
2022/10/22 00:28:38;;;;;;;12.63;3.70;;;;;;;11.88;100.00;100698.38;6185822;23;20009;-88
2022/10/22 00:31:04;;;;;;;13.68;3.92;;;;;;;11.91;100.00;100713.41;6185403;23;20015;-88
2022/10/22 00:33:32;;;;;;;10.13;4.10;;;;;;;11.80;100.00;100704.13;6183969;23;20084;-89
2022/10/22 00:36:03;;;;;;;8.57;4.10;;;;;;;11.80;100.00;100708.75;6184503;23;20001;-88
2022/10/22 00:38:29;;;;;;;8.50;3.83;;;;;;;11.80;100.00;100711.47;6184830;23;20479;-88
2022/10/22 00:40:57;;;;;;;11.63;4.18;;;;;;;11.85;100.00;100717.84;6183920;23;20040;-89
2022/10/22 00:43:26;;;;;;;7.55;3.65;;;;;;;11.81;100.00;100707.66;6184763;23;20020;-89
2022/10/22 00:45:52;;;;;;;13.50;4.17;;;;;;;11.82;100.00;100709.34;6184766;23;20009;-89
2022/10/22 00:48:27;;;;;;;13.93;4.63;;;;;;;11.93;100.00;100725.75;6184476;23;20435;-89
2022/10/22 00:51:03;;;;;;;11.27;4.37;;;;;;;11.92;100.00;100715.06;6184299;23;20088;-88
2022/10/22 00:53:40;;;;;;;7.22;4.13;;;;;;;11.91;100.00;100707.97;6186075;23;20084;-88
2022/10/22 00:56:07;;;;;;;11.52;4.05;;;;;;;11.99;100.00;100715.00;6184963;23;20037;-88
2022/10/22 00:58:40;;;;;;;12.73;4.20;;;;;;;11.95;100.00;100711.94;6184391;23;20095;-88
2022/10/22 01:01:12;;;;;;;12.20;4.28;;;;;;;11.98;100.00;100714.19;6184468;23;20325;-88
2022/10/22 01:03:37;;;;;;;12.10;4.07;;;;;;;11.95;100.00;100706.50;6184044;23;20009;-89
2022/10/22 01:06:04;;;;;;;15.05;4.28;;;;;;;12.01;100.00;100712.91;6159295;23;20017;-88
2022/10/22 01:08:57;;;;;;;11.27;4.63;;;;;;;11.98;100.00;100700.59;6188985;23;20016;-88
2022/10/22 01:11:48;;;;;;;10.63;4.47;;;;;;;11.99;100.00;100702.28;6216010;23;20489;-88
2022/10/22 01:14:28;;;;;;;10.82;4.68;;;;;;;12.13;100.00;100721.13;6189394;23;20054;-88
2022/10/22 01:17:05;;;;;;;12.73;4.15;;;;;;;12.13;100.00;100716.50;6215620;23;20008;-89
2022/10/22 01:19:48;;;;;;;10.90;4.50;;;;;;;12.21;100.00;100715.34;6215641;23;20055;-89
2022/10/22 01:22:36;;;;;;;10.17;4.33;;;;;;;12.19;100.00;100709.34;6189764;23;20099;-89
2022/10/22 01:25:24;;;;;;;10.95;4.05;;;;;;;12.11;100.00;100697.72;6187929;23;20008;-89
2022/10/22 01:28:27;;;;;;;12.43;4.55;;;;;;;12.19;100.00;100707.44;6189202;23;20009;-89
2022/10/22 01:30:55;;;;;;;13.10;4.63;;;;;;;12.10;100.00;100708.81;6188885;23;20008;-89
2022/10/22 01:33:23;;;;;;;13.65;4.85;;;;;;;12.06;100.00;100704.88;6189498;23;20015;-88
2022/10/22 01:35:51;;;;;;;10.17;4.40;;;;;;;12.02;100.00;100709.97;6188869;23;20008;-89
2022/10/22 01:38:23;;;;;;;10.68;5.03;;;;;;;12.03;100.00;100710.78;6188631;23;20004;-89
2022/10/22 01:40:50;;;;;;;13.70;5.00;;;;;;;11.97;100.00;100698.09;6190043;23;20406;-89
2022/10/22 01:43:15;;;;;;;13.98;5.40;;;;;;;12.00;100.00;100703.94;6190768;23;20315;-89
2022/10/22 01:45:48;;;;;;;13.00;4.87;;;;;;;11.96;100.00;100708.16;6191444;23;20015;-89
2022/10/22 01:48:36;;;;;;;18.02;4.97;;;;;;;11.99;100.00;100699.53;6191205;23;20051;-89
2022/10/22 01:51:11;;;;;;;12.57;4.85;;;;;;;11.98;100.00;100703.31;6191522;23;20074;-89
2022/10/22 01:53:52;;;;;;;14.87;4.60;;;;;;;11.94;100.00;100699.38;6191221;23;20035;-88
2022/10/22 01:56:24;;;;;;;12.77;5.00;;;;;;;11.96;100.00;100704.59;6191049;23;20370;-85
2022/10/22 01:58:57;;;;;;;15.80;5.47;;;;;;;11.95;100.00;100711.13;6191556;23;20012;-86
2022/10/22 02:01:39;;;;;;;12.70;4.80;;;;;;;11.92;100.00;100712.34;6191551;23;20011;-85
2022/10/22 02:04:40;;;;;;;8.23;4.88;;;;;;;11.90;100.00;100709.06;6190520;23;20023;-86
2022/10/22 02:07:10;;;;;;;7.73;4.67;;;;;;;11.86;100.00;100711.38;6125819;23;20063;-86
2022/10/22 02:09:38;;;;;;;13.75;5.32;;;;;;;11.84;100.00;100716.22;6190626;23;20076;-86
2022/10/22 02:12:07;;;;;;;10.45;4.90;;;;;;;11.86;100.00;100722.25;6190875;23;20015;-86
2022/10/22 02:14:38;;;;;;;11.52;5.05;;;;;;;11.86;100.00;100719.53;6190550;23;20008;-85
2022/10/22 02:17:07;;;;;;;12.82;5.45;;;;;;;11.85;100.00;100717.03;6191264;23;20009;-86
2022/10/22 02:19:49;;;;;;;11.53;5.27;;;;;;;11.85;100.00;100725.19;6190721;23;20039;-86
2022/10/22 02:22:14;;;;;;;11.45;5.22;;;;;;;11.82;100.00;100712.88;6217364;23;20091;-85
2022/10/22 02:24:40;;;;;;;12.02;5.20;;;;;;;11.81;100.00;100721.25;6190335;23;20017;-86
2022/10/22 02:27:31;;;;;;;10.83;4.93;;;;;;;11.82;100.00;100717.50;6190701;23;20331;-86
2022/10/22 02:30:03;;;;;;;13.27;5.47;;;;;;;11.82;100.00;100725.66;6191752;23;20016;-85
2022/10/22 02:32:40;;;;;;;17.30;5.07;;;;;;;11.85;100.00;100719.75;6191690;23;20004;-86
2022/10/22 02:35:09;;;;;;;14.93;5.10;;;;;;;11.83;100.00;100714.56;6190956;23;20040;-85
2022/10/22 02:37:35;;;;;;;12.95;5.20;;;;;;;11.84;100.00;100716.22;6190853;23;20008;-86
2022/10/22 02:40:01;;;;;;;19.05;6.32;;;;;;;11.82;100.00;100714.78;6166877;23;20016;-86
2022/10/22 02:42:27;;;;;;;12.82;5.45;;;;;;;11.82;100.00;100709.34;6165768;23;20382;-85
2022/10/22 02:44:53;;;;;;;14.77;5.83;;;;;;;11.79;100.00;100715.22;6190799;23;20063;-86
2022/10/22 02:47:18;;;;;;;13.77;5.23;;;;;;;11.77;100.00;100719.00;6190552;23;20415;-86
2022/10/22 02:49:43;;;;;;;12.35;5.15;;;;;;;11.79;100.00;100721.50;6190619;23;20031;-86
2022/10/22 02:52:09;;;;;;;11.13;4.77;;;;;;;11.73;100.00;100725.94;6190211;23;20040;-86
2022/10/22 02:54:35;;;;;;;13.57;5.13;;;;;;;11.71;100.00;100730.78;6190467;23;20039;-86
2022/10/22 02:57:00;;;;;;;14.68;5.32;;;;;;;11.64;100.00;100727.31;6190687;23;20000;-85
2022/10/22 02:59:25;;;;;;;15.93;5.33;;;;;;;11.64;100.00;100721.88;6190038;23;20103;-86
2022/10/22 03:01:51;;;;;;;15.07;5.23;;;;;;;11.66;100.00;100732.50;6140960;23;20012;-86
2022/10/22 03:04:16;;;;;;;15.17;4.87;;;;;;;11.59;100.00;100730.69;6190851;23;20031;-86
2022/10/22 03:06:43;;;;;;;15.57;5.45;;;;;;;11.57;100.00;100732.81;6190381;23;20013;-86
2022/10/22 03:09:08;;;;;;;11.97;5.53;;;;;;;11.57;100.00;100731.97;6190073;23;20036;-85
2022/10/22 03:11:34;;;;;;;17.98;5.80;;;;;;;11.55;100.00;100736.81;6165704;23;20423;-85
2022/10/22 03:13:59;;;;;;;10.73;4.97;;;;;;;11.55;100.00;100736.81;6190338;23;20047;-86
2022/10/22 03:16:25;;;;;;;13.53;5.20;;;;;;;11.56;100.00;100739.31;6190313;23;20015;-86
2022/10/22 03:18:50;;;;;;;14.23;5.23;;;;;;;11.57;100.00;100737.41;6189998;23;20386;-85
2022/10/22 03:21:37;;;;;;;12.97;4.63;;;;;;;11.58;100.00;100739.91;6191040;23;20244;-85
2022/10/22 03:24:10;;;;;;;16.67;5.07;;;;;;;11.65;100.00;100742.56;6190276;23;20063;-86
2022/10/22 03:26:38;;;;;;;15.77;5.30;;;;;;;11.65;100.00;100736.28;6190578;23;20046;-85
2022/10/22 03:29:04;;;;;;;9.57;4.53;;;;;;;11.69;100.00;100740.22;6189710;23;20083;-86
2022/10/22 03:31:29;;;;;;;16.67;5.68;;;;;;;11.72;100.00;100746.03;6190438;23;20039;-85
2022/10/22 03:33:55;;;;;;;11.90;5.30;;;;;;;11.74;100.00;100741.19;6190797;23;20395;-86
2022/10/22 03:36:20;;;;;;;14.87;5.07;;;;;;;11.78;100.00;100744.31;6189611;23;20016;-86
2022/10/22 03:38:46;;;;;;;16.23;4.72;;;;;;;11.80;100.00;100746.81;6190016;23;20343;-86
2022/10/22 03:41:11;;;;;;;19.47;5.37;;;;;;;11.83;100.00;100752.59;6190206;23;20327;-85
2022/10/22 03:43:39;;;;;;;15.17;5.00;;;;;;;11.90;100.00;100755.28;6190112;23;20047;-85
2022/10/22 03:46:05;;;;;;;17.63;5.38;;;;;;;11.90;100.00;100761.53;6216839;23;20009;-85
2022/10/22 03:48:30;;;;;;;16.20;5.13;;;;;;;11.92;100.00;100759.41;6165354;23;20071;-85
2022/10/22 03:50:55;;;;;;;12.43;5.20;;;;;;;11.95;100.00;100755.44;6140733;23;20613;-86
2022/10/22 03:53:21;;;;;;;15.47;5.20;;;;;;;11.98;100.00;100763.13;6190101;23;20087;-85
2022/10/22 03:55:46;;;;;;;21.20;5.00;;;;;;;12.01;100.00;100764.56;6165369;23;20079;-85
2022/10/22 03:58:11;;;;;;;16.27;4.90;;;;;;;12.03;100.00;100766.03;6165583;23;20019;-85
2022/10/22 04:00:37;;;;;;;18.63;5.40;;;;;;;12.09;100.00;100773.25;6141398;23;20062;-85
2022/10/22 04:03:03;;;;;;;21.55;5.45;;;;;;;12.11;100.00;100773.84;6190279;23;20427;-85
2022/10/22 04:05:28;;;;;;;18.63;4.95;;;;;;;12.11;100.00;100773.84;6216470;23;20423;-85
2022/10/22 04:07:54;;;;;;;18.00;5.20;;;;;;;12.10;100.00;100772.19;6212759;23;20032;-85
2022/10/22 04:10:19;;;;;;;17.80;4.80;;;;;;;12.13;100.00;100776.34;6191072;23;20020;-86
2022/10/22 04:12:48;;;;;;;20.30;5.30;;;;;;;12.16;100.00;100769.63;6190008;23;20426;-86
2022/10/22 04:15:14;;;;;;;16.63;4.38;;;;;;;12.20;100.00;100777.09;6189458;23;20005;-86
2022/10/22 04:17:39;;;;;;;15.60;4.88;;;;;;;12.21;100.00;100781.50;6189843;23;20058;-86
2022/10/22 04:20:05;;;;;;;18.10;4.63;;;;;;;12.24;100.00;100783.75;6216826;23;20087;-85
2022/10/22 04:22:35;;;;;;;20.50;5.18;;;;;;;12.26;100.00;100781.63;6189795;23;20450;-86
2022/10/22 04:25:01;;;;;;;15.02;4.85;;;;;;;12.25;100.00;100777.25;6216390;23;20076;-85
2022/10/22 04:27:32;;;;;;;16.30;4.83;;;;;;;12.26;100.00;100780.81;6189717;23;20075;-86
2022/10/22 04:29:57;;;;;;;16.13;4.47;;;;;;;12.27;100.00;100777.84;6216426;23;20028;-86
2022/10/22 04:32:23;;;;;;;15.82;4.65;;;;;;;12.30;100.00;100779.28;6165000;23;20063;-86
2022/10/22 04:34:49;;;;;;;22.43;4.53;;;;;;;12.30;100.00;100787.47;6216988;23;20008;-86
2022/10/22 04:37:14;;;;;;;14.60;4.45;;;;;;;12.29;100.00;100785.78;6165096;23;20082;-85
2022/10/22 04:39:40;;;;;;;17.77;4.27;;;;;;;12.33;100.00;100788.88;6189713;23;20088;-86
2022/10/22 04:42:05;;;;;;;17.30;4.80;;;;;;;12.33;100.00;100780.69;6164614;23;20011;-86
2022/10/22 04:44:30;;;;;;;19.53;4.20;;;;;;;12.35;100.00;100773.97;6190219;23;20015;-86
2022/10/22 04:46:56;;;;;;;17.05;4.82;;;;;;;12.35;100.00;100784.03;6189495;23;20015;-85
2022/10/22 04:49:21;;;;;;;23.27;4.77;;;;;;;12.33;100.00;100781.56;6189692;23;20008;-86
2022/10/22 04:51:47;;;;;;;19.63;4.97;;;;;;;12.36;100.00;100791.97;6189586;23;20009;-86
2022/10/22 04:54:12;;;;;;;20.27;4.93;;;;;;;12.36;100.00;100789.25;6216250;23;20327;-86
2022/10/22 04:56:38;;;;;;;16.30;4.63;;;;;;;12.37;100.00;100790.94;6190150;23;20012;-85
2022/10/22 04:59:05;;;;;;;15.23;4.57;;;;;;;12.42;100.00;100791.06;6140313;23;20028;-86
2022/10/22 05:01:32;;;;;;;15.43;4.57;;;;;;;12.45;100.00;100787.88;6189365;23;20001;-86
2022/10/22 05:04:00;;;;;;;12.65;4.38;;;;;;;12.51;100.00;100801.63;6189317;23;20012;-86
2022/10/22 05:06:28;;;;;;;13.65;4.68;;;;;;;12.54;100.00;100804.72;6190461;23;20016;-85
2022/10/22 05:08:56;;;;;;;13.25;4.60;;;;;;;12.57;100.00;100795.28;6212522;23;20079;-86
2022/10/22 05:11:24;;;;;;;14.52;4.85;;;;;;;12.64;100.00;100791.41;6165039;23;20020;-86
2022/10/22 05:13:50;;;;;;;18.63;4.83;;;;;;;12.68;100.00;100799.94;6189915;23;20032;-86
2022/10/22 05:16:15;;;;;;;20.40;5.00;;;;;;;12.70;100.00;100788.81;6190650;23;20434;-86
2022/10/22 05:18:43;;;;;;;13.70;4.57;;;;;;;12.73;100.00;100797.34;6166852;23;20336;-86
2022/10/22 05:21:15;;;;;;;13.73;4.63;;;;;;;12.74;100.00;100790.00;6191580;23;20009;-86
2022/10/22 05:23:41;;;;;;;16.95;4.50;;;;;;;12.74;100.00;100790.84;6191068;23;20008;-86
2022/10/22 05:26:09;;;;;;;17.73;4.68;;;;;;;12.81;100.00;100790.75;6191450;23;20082;-86
2022/10/22 05:28:35;;;;;;;17.60;4.30;;;;;;;12.79;100.00;100801.03;6190964;23;20043;-86
2022/10/22 05:31:01;;;;;;;21.83;4.95;;;;;;;12.74;100.00;100801.75;6191549;23;20370;-86
2022/10/22 05:33:29;;;;;;;16.52;4.35;;;;;;;12.76;100.00;100796.88;6191135;23;20009;-85
2022/10/22 05:35:55;;;;;;;20.35;4.25;;;;;;;12.74;100.00;100804.47;6217339;23;20438;-86
2022/10/22 05:38:21;;;;;;;17.98;3.60;;;;;;;12.76;100.00;100807.78;6191224;23;20028;-86
2022/10/22 05:40:46;;;;;;;18.13;4.00;;;;;;;12.71;100.00;100807.66;6190775;23;20331;-86
2022/10/22 05:43:12;;;;;;;13.60;3.35;;;;;;;12.71;100.00;100807.66;6191449;23;20331;-86
2022/10/22 05:45:39;;;;;;;17.77;3.67;;;;;;;12.73;100.00;100818.31;6191527;23;20441;-86
2022/10/22 05:48:06;;;;;;;14.80;4.22;;;;;;;12.69;100.00;100817.09;6191135;23;20004;-86
2022/10/22 05:50:34;;;;;;;14.95;3.50;;;;;;;12.64;100.00;100820.50;6190990;23;20008;-86
2022/10/22 05:52:59;;;;;;;14.30;3.13;;;;;;;12.63;100.00;100816.13;6191411;23;20075;-85
2022/10/22 05:55:24;;;;;;;18.27;4.23;;;;;;;12.59;100.00;100823.06;6190990;23;20331;-86
2022/10/22 05:57:50;;;;;;;9.30;3.47;;;;;;;12.53;100.00;100816.66;6167202;23;20385;-85
2022/10/22 06:00:16;;;;;;;15.53;3.57;;;;;;;12.51;100.00;100826.94;6190483;23;20330;-86
2022/10/22 06:02:53;;;;;;;10.23;3.10;;;;;;;12.54;100.00;100831.13;6167264;23;20055;-89
2022/10/22 06:05:19;;;;;;;8.37;2.70;;;;;;;12.58;100.00;100841.31;6191255;23;20107;-89
2022/10/22 06:07:47;;;;;;;12.25;3.28;;;;;;;12.61;100.00;100842.75;6190878;23;20494;-89
2022/10/22 06:10:19;;;;;;;11.75;2.90;;;;;;;12.58;100.00;100832.31;6185786;23;20024;-93
2022/10/22 06:12:50;;;;;;;15.97;3.10;;;;;;;12.58;100.00;100848.66;6187138;23;20021;-89
2022/10/22 06:15:29;;;;;;;13.35;3.20;;;;;;;12.56;100.00;100854.31;6186147;23;20001;-90
2022/10/22 06:17:57;;;;;;;10.35;2.92;;;;;;;12.54;100.00;100848.25;6138311;23;20446;-90
2022/10/22 06:20:28;;;;;;;8.70;3.08;;;;;;;12.60;100.00;100855.50;6161192;23;20151;-91
2022/10/22 06:22:53;;;;;;;16.75;3.03;;;;;;;12.62;100.00;100869.75;6186996;23;20392;-90
2022/10/22 06:25:19;;;;;;;14.87;3.27;;;;;;;12.63;100.00;100871.38;6186021;23;20011;-91
2022/10/22 06:27:51;;;;;;;10.63;3.47;;;;;;;12.68;100.00;100864.44;6186309;23;20017;-90
2022/10/22 06:30:19;;;;;;;10.43;2.78;;;;;;;12.71;100.00;100872.97;6186268;23;20008;-90
2022/10/22 06:32:47;;;;;;;13.32;3.00;;;;;;;12.67;100.00;100876.38;6185544;23;20388;-90
2022/10/22 06:35:18;;;;;;;10.48;2.83;;;;;;;12.64;100.00;100885.84;6186209;23;20009;-90
2022/10/22 06:37:53;;;;;;;;;;;;;;;;;;;;;
2022/10/22 06:40:23;;;;;;;11.13;2.38;;;;;;;12.66;100.00;100891.88;6186344;23;20406;-90
2022/10/22 06:42:48;;;;;;;9.50;2.88;;;;;;;12.60;100.00;100888.16;6185487;23;20009;-85
2022/10/22 06:45:14;;;;;;;9.90;2.87;;;;;;;12.57;100.00;100901.41;6160702;23;20016;-85
2022/10/22 06:47:39;;;;;;;10.27;2.58;;;;;;;12.55;100.00;100900.78;6160810;23;20009;-85
2022/10/22 06:50:05;;;;;;;16.00;2.80;;;;;;;12.57;100.00;100904.13;6186416;23;20016;-85
2022/10/22 06:52:31;;;;;;;9.67;2.67;;;;;;;12.57;100.00;100904.13;6160286;23;20383;-85
2022/10/22 06:54:56;;;;;;;11.07;2.47;;;;;;;12.53;100.00;100911.91;6185506;23;20267;-85
2022/10/22 06:57:21;;;;;;;11.17;2.70;;;;;;;12.50;100.00;100917.81;6186682;23;20013;-85
2022/10/22 06:59:47;;;;;;;15.33;2.63;;;;;;;12.48;100.00;100925.38;6185333;23;20044;-85
2022/10/22 07:02:12;;;;;;;9.80;2.50;;;;;;;12.48;100.00;100927.28;6185165;23;20039;-85
2022/10/22 07:04:38;;;;;;;10.73;2.50;;;;;;;12.53;100.00;100925.50;6185315;23;20071;-86
2022/10/22 07:07:03;;;;;;;12.30;3.00;;;;;;;12.54;100.00;100927.19;6160639;23;20017;-86
2022/10/22 07:09:28;;;;;;;8.73;2.30;;;;;;;12.54;100.00;100934.53;6160466;23;20039;-86
2022/10/22 07:11:54;;;;;;;10.67;2.23;;;;;;;12.58;100.00;100938.47;6185459;23;20072;-86
2022/10/22 07:14:19;;;;;;;13.60;3.07;;;;;;;12.67;100.00;100938.97;6185756;23;20009;-86
2022/10/22 07:16:45;;;;;;;12.40;2.45;;;;;;;12.74;100.00;100943.31;6160130;23;20016;-86
2022/10/22 07:19:11;;;;;;;8.83;2.63;;;;;;;12.84;100.00;100947.38;6161242;23;20032;-86
2022/10/22 07:21:36;;;;;;;11.30;2.55;;;;;;;12.87;100.00;100949.63;6186650;23;20005;-86
2022/10/22 07:24:02;;;;;;;9.40;2.40;;;;;;;12.91;100.00;100950.84;6185159;23;20008;-85
2022/10/22 07:26:29;;;;;;;17.80;2.33;;;;;;;12.91;100.00;100961.75;6186576;23;20009;-86
2022/10/22 07:28:55;;;;;;;8.67;2.37;;;;;;;12.90;100.00;100952.75;6185438;23;20041;-85
2022/10/22 07:31:21;;;;;;;11.32;2.35;;;;;;;12.94;100.00;100961.28;6184762;23;20348;-86
2022/10/22 07:33:47;;;;;;;15.60;2.45;;;;;;;12.95;100.00;100960.22;6184949;23;20009;-86
2022/10/22 07:36:16;;;;;;;12.43;2.20;;;;;;;13.00;100.00;100976.72;6160103;23;20013;-86
2022/10/22 07:38:46;;;;;;;15.60;2.50;;;;;;;13.00;100.00;100973.97;6185105;23;20013;-86
2022/10/22 07:41:13;;;;;;;14.80;2.60;;;;;;;13.06;100.00;100975.78;6184773;23;20075;-86
2022/10/22 07:43:45;;;;;;;9.93;2.53;;;;;;;13.15;100.00;100981.75;6185200;23;20032;-85
2022/10/22 07:46:11;;;;;;;10.23;2.10;;;;;;;13.23;100.00;100978.72;6186614;23;20005;-85
2022/10/22 07:48:37;;;;;;;9.55;2.30;;;;;;;13.29;100.00;100979.72;6186331;23;20016;-86
2022/10/22 07:51:02;;;;;;;8.80;1.80;;;;;;;13.33;100.00;100972.72;6184901;23;20087;-85
2022/10/22 07:53:28;;;;;;;12.93;2.28;;;;;;;13.38;100.00;100982.97;6184719;23;20058;-85
2022/10/22 07:55:53;;;;;;;8.70;2.07;;;;;;;13.41;100.00;100983.34;6184922;23;20041;-85
2022/10/22 07:58:20;;;;;;;7.23;1.87;;;;;;;13.54;100.00;100992.38;6159742;23;20005;-86
2022/10/22 08:00:46;;;;;;;8.82;1.88;;;;;;;13.61;100.00;100991.25;6184784;23;20005;-86
2022/10/22 08:03:12;;;;;;;10.50;1.92;;;;;;;13.64;100.00;100998.94;6186096;23;20005;-86
2022/10/22 08:05:38;;;;;;;10.02;2.20;;;;;;;13.64;100.00;100990.78;6186048;23;20005;-87
2022/10/22 08:08:12;;;;;;;10.87;1.60;;;;;;;13.64;100.00;101003.56;6184423;23;20009;-88
2022/10/22 08:10:38;;;;;;;6.93;2.03;;;;;;;13.67;100.00;101001.22;6189528;23;20054;-88
2022/10/22 08:13:05;;;;;;;6.50;1.70;;;;;;;13.72;100.00;101003.22;6189550;23;20000;-87
2022/10/22 08:15:30;;;;;;;9.50;1.83;;;;;;;13.83;100.00;101012.50;6189602;23;20090;-86
2022/10/22 08:17:55;;;;;;;13.73;2.13;;;;;;;13.99;100.00;101008.28;6189797;23;20012;-87
2022/10/22 08:20:21;;;;;;;8.17;1.63;;;;;;;14.11;100.00;101002.84;6190835;23;20009;-87
2022/10/22 08:22:46;;;;;;;9.40;1.97;;;;;;;14.14;100.00;101011.41;6189221;23;20005;-87
2022/10/22 08:25:12;;;;;;;8.10;1.80;;;;;;;14.14;100.00;101025.03;6189745;23;20013;-87
2022/10/22 08:27:37;;;;;;;11.63;2.00;;;;;;;14.20;100.00;101023.25;6189619;23;20080;-87
2022/10/22 08:30:04;;;;;;;9.73;1.80;;;;;;;14.30;100.00;101031.69;6189545;23;20477;-86
2022/10/22 08:32:30;;;;;;;12.43;1.92;;;;;;;14.52;100.00;101031.94;6189208;23;20084;-86
2022/10/22 08:34:58;;;;;;;6.75;1.60;;;;;;;14.74;100.00;101037.66;6165682;23;20044;-89
2022/10/22 08:37:24;;;;;;;6.72;1.63;;;;;;;14.88;100.00;101038.25;6140788;23;20012;-87
2022/10/22 08:39:52;;;;;;;7.83;1.73;;;;;;;15.12;99.58;101037.38;6189610;23;20301;-86
2022/10/22 08:42:42;;;;;;;11.40;1.75;;;;;;;15.40;99.67;101042.06;6189518;23;20076;-86
2022/10/22 08:45:17;;;;;;;5.68;1.40;;;;;;;15.62;96.56;101044.97;6190414;23;20008;-86
2022/10/22 08:47:58;;;;;;;7.18;1.48;;;;;;;15.83;96.10;101050.84;6189595;23;20009;-86
2022/10/22 08:50:33;;;;;;;6.93;1.88;;;;;;;15.97;93.09;101060.38;6190250;23;20043;-86
2022/10/22 08:53:04;;;;;;;12.13;1.60;;;;;;;15.95;92.60;101059.81;6216187;23;20446;-86
2022/10/22 08:55:33;;;;;;;10.77;1.65;;;;;;;15.99;91.87;101065.59;6189385;23;20007;-86
2022/10/22 08:58:16;;;;;;;7.45;1.60;;;;;;;16.06;92.76;101058.06;6165667;23;20013;-86
2022/10/22 09:00:56;;;;;;;9.95;1.90;;;;;;;16.12;91.02;101084.44;6189365;23;20039;-87
2022/10/22 09:03:53;;;;;;;9.32;1.80;;;;;;;16.07;90.71;101071.50;6189550;23;20403;-88
2022/10/22 09:06:28;;;;;;;10.83;1.90;;;;;;;16.09;90.89;101085.78;6188595;23;20316;-85
2022/10/22 09:08:57;;;;;;;12.63;1.70;;;;;;;16.08;89.48;101072.34;6185666;23;20023;-85
2022/10/22 09:11:30;;;;;;;7.20;2.17;;;;;;;16.03;89.93;101094.16;6188892;23;20012;-86
2022/10/22 09:13:57;;;;;;;11.98;1.63;;;;;;;16.00;91.23;101086.44;6189359;23;20055;-85
2022/10/22 09:16:35;;;;;;;10.55;1.92;;;;;;;15.99;90.42;101088.34;6189679;23;20005;-84
2022/10/22 09:19:19;;;;;;;9.30;1.57;;;;;;;15.91;90.06;101099.69;6189892;23;20363;-85
2022/10/22 09:21:44;;;;;;;7.22;1.42;;;;;;;15.88;91.70;101100.16;6189232;23;20012;-85
2022/10/22 09:24:37;;;;;;;7.03;1.67;;;;;;;15.90;91.04;101100.75;6189981;23;20004;-85
2022/10/22 09:27:12;;;;;;;8.43;1.52;;;;;;;15.91;91.23;101096.94;6188233;23;20419;-85
2022/10/22 09:29:38;;;;;;;9.82;1.60;;;;;;;15.98;91.21;101108.56;6189406;23;20422;-85
2022/10/22 09:32:03;;;;;;;9.87;1.70;;;;;;;15.99;90.43;101115.72;6216374;23;20051;-85
2022/10/22 09:34:30;;;;;;;11.35;1.65;;;;;;;15.92;90.85;101109.56;6189448;23;20418;-85
2022/10/22 09:37:04;;;;;;;15.40;2.10;;;;;;;15.95;90.80;101117.28;6216016;23;20082;-85
2022/10/22 09:39:39;;;;;;;8.70;1.70;;;;;;;15.98;90.55;101122.25;6189684;23;20069;-85
2022/10/22 09:42:06;;;;;;;8.77;2.00;;;;;;;16.04;90.25;101129.47;6189045;23;20019;-85
2022/10/22 09:44:33;;;;;;;7.22;1.70;;;;;;;16.10;90.02;101119.47;6188933;23;20009;-85
2022/10/22 09:47:02;;;;;;;10.88;1.50;;;;;;;16.16;89.85;101126.69;6188829;23;20390;-85
2022/10/22 09:49:31;;;;;;;8.50;1.87;;;;;;;16.22;89.06;101127.59;6189516;23;20331;-86
2022/10/22 09:51:59;;;;;;;9.02;1.52;;;;;;;16.28;89.00;101137.56;6189158;23;20000;-85
2022/10/22 09:54:30;;;;;;;10.48;1.92;;;;;;;16.32;88.76;101133.28;6215831;23;20012;-85
2022/10/22 09:57:04;;;;;;;9.90;1.70;;;;;;;16.34;88.28;101138.50;6189073;23;20500;-85
2022/10/22 09:59:31;;;;;;;9.52;1.65;;;;;;;16.38;87.56;101150.63;6216504;23;20533;-85
2022/10/22 10:02:11;;;;;;;10.90;2.10;;;;;;;16.39;88.52;101152.28;6189901;23;20012;-85
2022/10/22 10:04:49;;;;;;;11.60;2.03;;;;;;;16.33;89.05;101154.09;6190764;23;20439;-85
2022/10/22 10:07:23;;;;;;;7.60;1.48;;;;;;;16.25;88.82;101162.69;6191374;23;20013;-85
2022/10/22 10:09:50;;;;;;;6.13;1.35;;;;;;;16.30;89.23;101168.28;6217171;23;20087;-86
2022/10/22 10:12:51;;;;;;;10.75;1.48;;;;;;;16.37;88.77;101173.59;6217476;23;20011;-86
2022/10/22 10:15:20;;;;;;;9.30;1.53;;;;;;;16.33;88.63;101176.00;6191650;23;20008;-86
2022/10/22 10:17:45;;;;;;;7.70;1.50;;;;;;;16.33;89.09;101180.63;6190835;23;20382;-85
2022/10/22 10:20:33;;;;;;;13.20;1.50;;;;;;;16.31;89.11;101175.41;6190978;23;20004;-86
2022/10/22 10:23:37;;;;;;;9.18;2.03;;;;;;;16.40;88.64;101182.16;6190987;23;20043;-85
2022/10/22 10:26:12;;;;;;;15.38;1.90;;;;;;;16.60;88.08;101178.94;6217443;23;20004;-86
2022/10/22 10:28:46;;;;;;;7.25;1.83;;;;;;;16.86;86.32;101179.38;6191686;23;20019;-85
2022/10/22 10:31:24;;;;;;;12.33;1.80;;;;;;;16.96;85.58;101173.25;6191631;23;20009;-85
2022/10/22 10:34:10;;;;;;;14.75;2.10;;;;;;;17.12;84.35;101190.75;6191102;23;20054;-85
2022/10/22 10:37:00;;;;;;;10.02;1.95;;;;;;;17.17;84.39;101180.69;6190862;23;20009;-85
2022/10/22 10:39:52;;;;;;;9.48;1.52;;;;;;;17.18;83.59;101185.13;6190654;23;20041;-85
2022/10/22 10:42:30;;;;;;;10.45;2.05;;;;;;;17.40;81.57;101181.56;6191208;23;20096;-86
2022/10/22 10:45:15;;;;;;;7.87;1.70;;;;;;;17.70;81.80;101196.78;6217394;23;20069;-85
2022/10/22 10:48:05;;;;;;;9.45;1.70;;;;;;;18.01;80.10;101194.44;6191190;23;20004;-85
2022/10/22 10:50:48;;;;;;;10.68;2.47;;;;;;;18.40;77.93;101208.03;6190882;23;20012;-85
2022/10/22 10:53:43;;;;;;;10.93;2.25;;;;;;;18.62;76.67;101190.69;6217035;23;20063;-85
2022/10/22 10:56:20;;;;;;;7.75;1.70;;;;;;;18.46;76.38;101193.28;6178950;23;20009;-85
2022/10/22 10:58:59;;;;;;;7.27;2.50;;;;;;;18.75;75.51;101198.50;6190236;23;20009;-85
2022/10/22 11:01:40;;;;;;;5.90;1.65;;;;;;;19.08;74.47;101194.63;6190637;23;20012;-85
2022/10/22 11:04:24;;;;;;;13.57;2.33;;;;;;;18.84;72.75;101185.91;6191141;23;20018;-85
2022/10/22 11:06:56;;;;;;;13.52;2.00;;;;;;;18.40;73.71;101195.13;6191102;23;20008;-84
2022/10/22 11:09:28;;;;;;;12.60;2.28;;;;;;;18.75;74.58;101198.50;6185269;23;20040;-85
2022/10/22 11:12:02;;;;;;;9.23;1.90;;;;;;;20.21;68.51;101191.63;6184780;23;20036;-85
2022/10/22 11:14:45;;;;;;;8.38;1.73;;;;;;;21.92;62.15;101189.53;6185432;23;20095;-85
2022/10/22 11:17:14;;;;;;;10.05;2.10;;;;;;;22.63;57.85;101201.28;6186902;23;20032;-85
2022/10/22 11:19:49;;;;;;;12.13;2.00;;;;;;;22.14;61.00;101203.78;6185621;23;20139;-85
2022/10/22 11:22:38;;;;;;;9.27;2.30;;;;;;;21.52;62.02;101219.78;6186179;23;20085;-85
2022/10/22 11:25:22;;;;;;;7.80;1.93;;;;;;;20.52;62.63;101205.44;6185492;23;20071;-86
2022/10/22 11:27:56;;;;;;;7.40;1.80;;;;;;;20.88;63.55;101194.47;6185348;23;20015;-85
2022/10/22 11:30:24;;;;;;;10.13;1.73;;;;;;;22.91;56.68;101185.84;6184860;23;20005;-85